Time;durP1;ratioP1;P1;durP2;ratioP2;P2;SDS_P1;SDS_P2;PMS_P1;PMS_P2;Temp;Humidity;BMP_temperature;BMP_pressure;BME280_temperature;BME280_humidity;BME280_pressure;Samples;Min_cycle;Max_cycle;Signal;HPM_P1;HPM_P2
2021/12/07 00:01:18;;;;;;;5.75;2.08;;;;;;;-15.85;82.93;101329.25;5058561;28;20036;-82
2021/12/07 00:03:44;;;;;;;4.22;2.42;;;;;;;-15.86;82.72;101328.41;5064076;28;20430;-82
2021/12/07 00:06:09;;;;;;;1.38;1.27;;;;;;;-15.82;83.00;101336.94;5061863;28;20041;-82
2021/12/07 00:08:36;;;;;;;4.00;2.40;;;;;;;-15.81;82.85;101332.50;5055385;28;20415;-83
2021/12/07 00:11:02;;;;;;;6.32;2.25;;;;;;;-15.82;82.75;101329.03;5054522;28;20044;-80
2021/12/07 00:13:32;;;;;;;5.07;3.17;;;;;;;-15.79;82.81;101325.38;5052129;28;20392;-80
2021/12/07 00:15:58;;;;;;;2.10;1.77;;;;;;;-15.78;82.77;101322.69;5053823;28;20045;-80
2021/12/07 00:18:24;;;;;;;6.45;1.92;;;;;;;-15.79;82.69;101320.13;5054139;28;20085;-82
2021/12/07 00:20:50;;;;;;;4.72;2.30;;;;;;;-15.77;82.90;101321.72;5036543;28;20075;-82
2021/12/07 00:23:16;;;;;;;3.03;2.00;;;;;;;-15.72;82.82;101318.81;5060724;28;20099;-82
2021/12/07 00:25:42;;;;;;;3.97;2.15;;;;;;;-15.71;82.73;101325.75;5043427;28;20033;-82
2021/12/07 00:28:08;;;;;;;2.60;2.35;;;;;;;-15.69;82.93;101311.56;5052215;28;20053;-82
2021/12/07 00:30:36;;;;;;;7.15;3.30;;;;;;;-15.67;82.93;101308.84;5051863;28;20526;-82
2021/12/07 00:33:15;;;;;;;6.47;4.35;;;;;;;-15.67;82.85;101317.56;5054351;28;20048;-81
2021/12/07 00:35:41;;;;;;;9.18;2.55;;;;;;;-15.67;82.83;101324.63;5076166;28;20044;-81
2021/12/07 00:38:16;;;;;;;4.35;2.53;;;;;;;-15.66;82.70;101328.94;5052827;28;20094;-81
2021/12/07 00:40:43;;;;;;;1.88;1.60;;;;;;;-15.67;82.77;101312.31;5052670;28;20044;-81
2021/12/07 00:43:10;;;;;;;5.57;2.63;;;;;;;-15.66;83.14;101319.25;5058812;28;20528;-81
2021/12/07 00:45:37;;;;;;;8.80;3.63;;;;;;;-15.65;83.17;101313.06;5067533;28;20033;-81
2021/12/07 00:48:05;;;;;;;9.55;3.13;;;;;;;-15.65;83.07;101302.53;5052692;28;20037;-81
2021/12/07 00:50:31;;;;;;;6.15;2.95;;;;;;;-15.64;82.74;101306.00;5052540;28;20033;-81
2021/12/07 00:52:57;;;;;;;4.25;1.70;;;;;;;-15.66;82.97;101303.47;5057872;28;20029;-80
2021/12/07 00:55:26;;;;;;;2.25;1.55;;;;;;;-15.64;83.01;101288.44;5046758;28;20487;-80
2021/12/07 00:57:54;;;;;;;4.07;1.77;;;;;;;-15.63;83.12;101290.13;5035438;28;20071;-81
2021/12/07 01:00:21;;;;;;;7.88;2.80;;;;;;;-15.62;82.95;101283.06;5050007;28;20036;-81
2021/12/07 01:02:47;;;;;;;2.85;2.55;;;;;;;-15.61;83.18;101285.66;5050537;28;20037;-80
2021/12/07 01:05:22;;;;;;;6.45;2.85;;;;;;;-15.60;83.16;101286.47;5057440;28;20033;-80
2021/12/07 01:07:57;;;;;;;5.90;2.35;;;;;;;-15.63;83.16;101278.75;5067334;28;20512;-80
2021/12/07 01:26:58;;;;;;;3.00;1.27;;;;;;;-15.62;83.21;101241.00;5069416;28;20185;-80
2021/12/07 01:29:26;;;;;;;0.80;0.80;;;;;;;-15.63;83.15;101232.28;5069532;28;20503;-81
2021/12/07 01:47:31;;;;;;;9.25;4.13;;;;;;;-15.69;82.98;101229.19;5035485;28;20408;-81
2021/12/07 02:00:53;;;;;;;4.38;2.75;;;;;;;-15.69;83.02;101230.03;5082897;28;20041;-80
2021/12/07 02:03:19;;;;;;;4.97;0.95;;;;;;;-15.64;83.01;101227.09;5034317;28;20040;-81
2021/12/07 02:05:46;;;;;;;2.72;1.60;;;;;;;-15.67;82.92;101228.16;5050466;28;20039;-81
2021/12/07 02:08:13;;;;;;;1.17;1.13;;;;;;;-15.67;83.22;101224.69;5034101;28;20085;-80
2021/12/07 02:10:39;;;;;;;9.52;1.98;;;;;;;-15.64;82.89;101221.84;5050690;28;20079;-80
2021/12/07 02:13:21;;;;;;;0.40;0.40;;;;;;;-15.65;83.18;101222.78;5034161;28;20033;-80
2021/12/07 02:15:48;;;;;;;1.60;1.50;;;;;;;-15.66;82.83;101210.59;5043690;28;20032;-81
2021/12/07 02:18:16;;;;;;;0.73;0.70;;;;;;;-15.67;82.94;101217.63;5010695;28;20065;-85
2021/12/07 02:20:47;;;;;;;0.68;0.68;;;;;;;-15.67;82.99;101212.38;5051072;28;20075;-81
2021/12/07 02:23:17;;;;;;;1.08;1.08;;;;;;;-15.70;82.84;101217.84;5050230;28;20037;-80
2021/12/07 02:25:44;;;;;;;4.05;1.98;;;;;;;-15.69;82.77;101219.53;5049966;28;20048;-80
2021/12/07 02:28:14;;;;;;;1.52;1.42;;;;;;;-15.70;83.17;101209.09;5033524;28;20036;-80
2021/12/07 02:30:45;;;;;;;1.92;1.67;;;;;;;-15.69;82.93;101205.53;5033944;28;20209;-80
2021/12/07 02:33:11;;;;;;;2.88;1.98;;;;;;;-15.73;83.33;101210.16;5017011;28;20039;-80
2021/12/07 02:35:38;;;;;;;9.43;3.40;;;;;;;-15.73;83.00;101218.03;5056493;28;20131;-80
2021/12/07 02:38:09;;;;;;;3.10;2.63;;;;;;;-15.73;83.17;101201.44;5033011;28;20493;-80
2021/12/07 02:40:36;;;;;;;1.65;1.55;;;;;;;-15.75;83.36;101196.28;5049525;28;20041;-80
2021/12/07 02:43:04;;;;;;;0.93;0.57;;;;;;;-15.73;83.07;101194.38;5032537;28;20066;-80
2021/12/07 02:45:31;;;;;;;5.05;1.73;;;;;;;-15.72;83.04;101198.69;5053952;28;20093;-82
2021/12/07 02:47:57;;;;;;;2.22;2.03;;;;;;;-15.72;83.46;101193.44;5032944;28;20128;-80
2021/12/07 02:50:23;;;;;;;3.15;2.60;;;;;;;-15.71;83.21;101191.66;5049277;28;20036;-81
2021/12/07 02:52:49;;;;;;;3.72;2.50;;;;;;;-15.70;83.36;101188.91;5078278;28;20042;-80
2021/12/07 02:55:16;;;;;;;6.18;2.78;;;;;;;-15.68;83.30;101183.56;5030836;28;20060;-80
2021/12/07 02:57:43;;;;;;;5.70;2.42;;;;;;;-15.68;83.40;101179.13;5050647;28;20028;-81
2021/12/07 03:00:17;;;;;;;6.20;2.72;;;;;;;-15.66;83.38;101173.78;5049476;28;20049;-80
2021/12/07 03:02:52;;;;;;;4.72;3.28;;;;;;;-15.69;83.42;101177.44;5033092;28;20045;-80
2021/12/07 03:27:03;;;;;;;3.47;2.30;;;;;;;-15.45;83.81;101153.91;5037365;28;20124;-80
2021/12/07 03:29:29;;;;;;;7.45;2.63;;;;;;;-15.43;83.92;101151.22;5054512;28;20044;-80
2021/12/07 03:31:55;;;;;;;8.25;3.38;;;;;;;-15.43;83.93;101167.00;5053455;28;20037;-80
2021/12/07 03:34:21;;;;;;;7.05;2.75;;;;;;;-15.43;83.85;101157.31;5036090;28;20032;-80
2021/12/07 03:36:47;;;;;;;6.75;2.97;;;;;;;-15.41;83.67;101154.56;5021116;28;20044;-80
2021/12/07 03:39:13;;;;;;;8.00;3.58;;;;;;;-15.38;83.84;101170.16;5052915;28;20084;-81
2021/12/07 03:41:39;;;;;;;3.80;2.08;;;;;;;-15.38;83.97;101164.88;5016364;28;20470;-81
2021/12/07 03:44:04;;;;;;;10.05;4.13;;;;;;;-15.34;83.82;101163.72;5071182;28;20032;-81
2021/12/07 03:46:31;;;;;;;4.70;3.15;;;;;;;-15.33;83.91;101162.78;5037318;28;20134;-80
2021/12/07 03:48:57;;;;;;;8.13;3.03;;;;;;;-15.31;83.85;101156.47;5018811;28;20037;-82
2021/12/07 03:51:24;;;;;;;13.77;3.00;;;;;;;-15.30;83.98;101158.16;5070788;28;20415;-80
2021/12/07 03:53:49;;;;;;;5.28;2.85;;;;;;;-15.28;84.14;101158.88;5061073;28;20045;-80
2021/12/07 03:56:40;;;;;;;5.57;2.88;;;;;;;-15.25;84.05;101155.22;5050670;28;20569;-80
2021/12/07 03:59:07;;;;;;;10.80;3.50;;;;;;;-15.24;84.12;101156.91;5052819;28;20087;-80
2021/12/07 04:01:33;;;;;;;4.60;2.92;;;;;;;-15.23;83.95;101163.88;5035566;28;20503;-80
2021/12/07 04:04:02;;;;;;;5.25;2.80;;;;;;;-15.19;84.17;101164.50;5052312;28;20045;-80
2021/12/07 04:06:33;;;;;;;3.13;2.58;;;;;;;-15.15;84.03;101164.19;5051889;28;20495;-80
2021/12/07 04:09:00;;;;;;;6.00;3.00;;;;;;;-15.11;84.19;101167.44;5035679;28;20045;-80
2021/12/07 04:11:31;;;;;;;12.23;3.70;;;;;;;-15.11;84.11;101157.75;5032448;28;20605;-82
2021/12/07 04:13:56;;;;;;;3.08;2.58;;;;;;;-15.11;83.99;101146.38;5050541;28;20447;-81
2021/12/07 04:16:26;;;;;;;4.68;2.28;;;;;;;-15.10;84.02;101146.28;5028600;28;20535;-81
2021/12/07 04:18:55;;;;;;;8.18;3.25;;;;;;;-15.10;83.85;101148.91;5044677;28;20037;-81
2021/12/07 04:21:21;;;;;;;6.13;2.55;;;;;;;-15.10;83.94;101130.47;5018785;28;20037;-82
2021/12/07 04:23:46;;;;;;;5.38;3.03;;;;;;;-15.08;83.93;101140.94;5041741;28;20032;-81
2021/12/07 04:26:13;;;;;;;5.68;2.83;;;;;;;-15.06;84.22;101131.13;5042344;28;20040;-81
2021/12/07 04:28:40;;;;;;;5.43;2.65;;;;;;;-15.04;83.96;101122.19;5034864;28;20155;-83
2021/12/07 04:31:06;;;;;;;7.65;2.22;;;;;;;-15.00;84.10;101117.53;5022670;28;20502;-83
2021/12/07 04:33:33;;;;;;;7.32;3.65;;;;;;;-14.96;84.03;101109.31;5041665;28;20056;-81
2021/12/07 04:35:59;;;;;;;4.40;3.05;;;;;;;-14.92;84.04;101099.44;5046309;28;20087;-81
2021/12/07 04:38:25;;;;;;;0.77;0.77;;;;;;;-14.88;83.88;101105.34;5067491;28;20037;-81
2021/12/07 04:40:51;;;;;;;1.15;1.15;;;;;;;-14.89;84.04;101101.88;5035091;28;20041;-82
2021/12/07 04:43:16;;;;;;;0.35;0.35;;;;;;;-14.87;84.01;101104.38;5034758;28;20082;-82
2021/12/07 04:58:35;;;;;;;0.95;0.93;;;;;;;-14.86;84.12;101096.38;5052178;28;20048;-82
2021/12/07 05:01:08;;;;;;;1.10;0.80;;;;;;;-14.83;84.07;101095.31;5039275;28;20040;-81
2021/12/07 05:03:35;;;;;;;1.67;1.58;;;;;;;-14.80;84.17;101092.47;5032502;28;20049;-83
2021/12/07 05:06:01;;;;;;;3.00;1.20;;;;;;;-14.81;84.23;101098.69;5034197;28;20127;-83
2021/12/07 05:08:39;;;;;;;2.33;1.77;;;;;;;-14.80;84.26;101087.19;5067549;28;20075;-83
2021/12/07 05:23:55;;;;;;;6.45;3.22;;;;;;;-14.73;84.37;101088.47;5052617;28;20094;-82
2021/12/07 05:25:41;;;;;;;6.25;2.67;;;;;;;-14.68;84.62;101092.44;5048055;28;20160;-82
2021/12/07 05:39:22;;;;;;;2.30;1.63;;;;;;;-14.60;84.56;101083.16;5052247;28;20127;-84
2021/12/07 05:41:48;;;;;;;4.72;2.85;;;;;;;-14.58;84.62;101083.88;5070219;28;20048;-83
2021/12/07 05:44:13;;;;;;;5.72;3.33;;;;;;;-14.54;84.71;101080.94;5055337;28;20407;-83
2021/12/07 05:46:39;;;;;;;2.17;1.65;;;;;;;-14.53;84.78;101074.72;5070635;28;20092;-82
2021/12/07 05:49:05;;;;;;;1.67;1.58;;;;;;;-14.51;84.69;101058.78;5051155;28;20060;-84
2021/12/07 05:51:30;;;;;;;6.03;2.95;;;;;;;-14.51;84.92;101072.81;5072322;28;20037;-82
2021/12/07 05:53:56;;;;;;;6.50;2.13;;;;;;;-14.49;84.74;101065.63;5055783;28;20180;-86
2021/12/07 05:56:22;;;;;;;9.57;3.10;;;;;;;-14.46;84.80;101067.19;5034221;28;20048;-86
2021/12/07 05:58:47;;;;;;;5.43;3.38;;;;;;;-14.45;84.89;101071.53;5051419;28;20033;-86
2021/12/07 06:01:13;;;;;;;9.32;3.28;;;;;;;-14.45;84.97;101071.53;5051268;28;20048;-86
2021/12/07 06:03:39;;;;;;;7.22;2.03;;;;;;;-14.46;84.98;101065.41;5054725;28;20036;-86
2021/12/07 06:06:04;;;;;;;2.83;1.88;;;;;;;-14.45;84.76;101058.34;5041997;28;20037;-85
2021/12/07 06:08:31;;;;;;;9.70;2.85;;;;;;;-14.43;84.85;101065.16;5035745;28;20065;-86
2021/12/07 06:10:57;;;;;;;4.38;2.58;;;;;;;-14.42;84.73;101060.72;5066671;28;20064;-86
2021/12/07 06:13:22;;;;;;;7.47;3.17;;;;;;;-14.39;84.74;101057.88;5051056;28;20499;-87
2021/12/07 06:15:48;;;;;;;6.63;4.18;;;;;;;-14.39;84.54;101056.09;5049882;28;20036;-87
2021/12/07 06:18:14;;;;;;;1.20;1.13;;;;;;;-14.38;84.84;101047.22;5035495;28;20045;-85
2021/12/07 06:20:41;;;;;;;2.13;1.88;;;;;;;-14.35;84.71;101048.81;5050842;28;20067;-86
2021/12/07 06:23:12;;;;;;;1.70;1.23;;;;;;;-14.34;84.48;101040.78;5034004;28;20035;-86
2021/12/07 06:25:38;;;;;;;7.07;3.47;;;;;;;-14.33;84.58;101047.72;5050360;28;20044;-85
2021/12/07 06:28:04;;;;;;;5.47;3.20;;;;;;;-14.34;84.70;101047.84;5051615;28;20103;-86
2021/12/07 06:30:30;;;;;;;5.88;3.50;;;;;;;-14.33;84.71;101045.09;5066846;28;20144;-85
2021/12/07 06:32:55;;;;;;;11.68;3.97;;;;;;;-14.32;84.83;101049.41;5033818;28;20131;-85
2021/12/07 06:35:21;;;;;;;9.23;3.42;;;;;;;-14.31;84.85;101043.19;5050132;28;20499;-86
2021/12/07 06:37:47;;;;;;;7.90;3.58;;;;;;;-14.29;84.76;101036.97;5049769;28;20531;-85
2021/12/07 06:40:12;;;;;;;10.93;3.33;;;;;;;-14.29;84.84;101040.44;5051316;28;20402;-85
2021/12/07 06:42:39;;;;;;;7.50;2.00;;;;;;;-14.27;84.92;101035.06;5051004;28;20123;-85
2021/12/07 06:45:07;;;;;;;6.03;2.40;;;;;;;-14.27;85.05;101041.16;5049891;28;20087;-84
2021/12/07 06:47:33;;;;;;;0.40;0.40;;;;;;;-14.27;85.01;101038.53;5033060;28;20497;-84
2021/12/07 06:49:58;;;;;;;10.10;2.28;;;;;;;-14.26;84.83;101023.56;5051058;28;20414;-85
2021/12/07 06:52:24;;;;;;;5.10;3.35;;;;;;;-14.26;84.96;101048.13;5033019;28;20136;-85
2021/12/07 06:54:50;;;;;;;6.78;3.03;;;;;;;-14.26;84.99;101052.56;5049926;28;20498;-85
2021/12/07 06:57:15;;;;;;;4.70;3.22;;;;;;;-14.25;84.89;101054.22;5049994;28;20490;-86
2021/12/07 06:59:41;;;;;;;4.63;2.65;;;;;;;-14.24;84.93;101050.63;5066349;28;20033;-86
2021/12/07 07:02:07;;;;;;;1.75;1.65;;;;;;;-14.21;85.00;101046.00;5049120;28;20044;-86
2021/12/07 07:04:33;;;;;;;11.50;2.83;;;;;;;-14.21;85.05;101053.91;5050552;28;20037;-86
2021/12/07 07:06:59;;;;;;;4.28;3.03;;;;;;;-14.20;84.80;101049.47;5048391;28;20087;-86
2021/12/07 07:09:24;;;;;;;12.57;3.97;;;;;;;-14.18;85.04;101053.69;5050318;28;20041;-86
2021/12/07 07:11:50;;;;;;;2.78;2.17;;;;;;;-14.15;85.08;101048.19;5066288;28;20072;-86
2021/12/07 07:14:16;;;;;;;7.00;3.53;;;;;;;-14.13;85.02;101051.53;5066286;28;20072;-87
2021/12/07 07:16:42;;;;;;;13.23;3.45;;;;;;;-14.12;84.82;101055.88;5016890;28;20510;-86
2021/12/07 07:19:07;;;;;;;3.47;3.17;;;;;;;-14.10;84.97;101045.19;5050788;28;20553;-86
2021/12/07 07:21:33;;;;;;;2.75;2.25;;;;;;;-14.10;84.87;101051.31;5049461;28;20040;-86
2021/12/07 07:23:59;;;;;;;5.43;2.85;;;;;;;-14.12;84.77;101040.03;5048324;28;20104;-86
2021/12/07 07:26:24;;;;;;;5.80;2.15;;;;;;;-14.09;84.73;101034.53;5047379;28;20040;-85
2021/12/07 07:28:50;;;;;;;4.25;2.53;;;;;;;-14.07;84.78;101048.44;5016329;28;20037;-86
2021/12/07 07:31:16;;;;;;;2.45;2.25;;;;;;;-14.04;84.73;101026.31;5050958;28;20266;-86
2021/12/07 07:33:41;;;;;;;6.20;3.83;;;;;;;-14.01;84.72;101031.34;5016381;28;20068;-86
2021/12/07 07:36:07;;;;;;;5.63;3.13;;;;;;;-13.98;84.89;101027.63;5050828;28;20067;-87
2021/12/07 07:38:33;;;;;;;10.30;3.55;;;;;;;-13.97;84.66;101039.88;5049792;28;20514;-87
2021/12/07 07:40:59;;;;;;;6.40;3.22;;;;;;;-13.96;84.62;101031.84;5048771;28;20044;-85
2021/12/07 07:43:25;;;;;;;4.28;3.35;;;;;;;-13.93;84.66;101034.25;5049361;28;20511;-88
2021/12/07 07:46:14;;;;;;;17.48;4.32;;;;;;;-13.93;84.58;101026.34;5056539;28;20049;-85
2021/12/07 07:48:39;;;;;;;9.68;4.63;;;;;;;-13.99;84.25;101024.16;5049848;28;20047;-87
2021/12/07 07:51:05;;;;;;;10.07;4.22;;;;;;;-14.01;84.10;101031.34;5048956;28;20040;-86
2021/12/07 07:53:31;;;;;;;5.97;3.65;;;;;;;-14.03;84.13;101031.47;5048456;28;20557;-87
2021/12/07 07:55:59;;;;;;;5.90;3.40;;;;;;;-14.03;84.01;101031.47;5049203;28;20036;-87
2021/12/07 07:58:25;;;;;;;7.78;5.05;;;;;;;-14.03;83.75;101028.00;5048999;28;20044;-87
2021/12/07 08:00:51;;;;;;;4.32;2.65;;;;;;;-14.01;84.05;101021.66;5065542;28;20041;-85
2021/12/07 08:03:16;;;;;;;4.10;2.20;;;;;;;-13.94;84.12;101023.81;5048772;28;20513;-86
2021/12/07 08:05:43;;;;;;;8.93;2.80;;;;;;;-13.90;84.21;101030.53;5050255;28;20043;-85
2021/12/07 08:08:11;;;;;;;11.32;4.40;;;;;;;-13.87;84.39;101019.78;5045752;28;20045;-85
2021/12/07 08:10:37;;;;;;;4.93;2.65;;;;;;;-13.87;84.29;101019.78;5048757;28;20040;-87
2021/12/07 08:13:05;;;;;;;7.18;3.97;;;;;;;-13.84;84.58;101024.81;5033885;28;20037;-86
2021/12/07 08:15:32;;;;;;;5.47;2.75;;;;;;;-13.82;84.45;101018.47;5052659;28;20052;-86
2021/12/07 08:17:58;;;;;;;2.90;2.63;;;;;;;-13.79;84.10;101023.50;5019959;28;20049;-86
2021/12/07 08:20:27;;;;;;;1.02;1.02;;;;;;;-13.75;84.31;101013.56;5051496;28;20565;-84
2021/12/07 08:22:53;;;;;;;5.00;3.65;;;;;;;-13.72;84.33;101030.00;5068724;28;20135;-85
2021/12/07 08:25:19;;;;;;;4.53;3.10;;;;;;;-13.67;84.31;101023.56;5052305;28;20072;-87
2021/12/07 08:27:44;;;;;;;9.55;4.28;;;;;;;-13.69;84.47;101012.28;5052359;28;20044;-86
2021/12/07 08:30:13;;;;;;;2.50;2.13;;;;;;;-13.65;84.57;101016.34;5052692;28;20048;-85
2021/12/07 08:32:44;;;;;;;10.85;4.50;;;;;;;-13.57;84.63;101003.41;5053413;28;20048;-88
2021/12/07 08:35:12;;;;;;;1.60;1.50;;;;;;;-13.51;84.79;101010.88;5053844;28;20181;-86
2021/12/07 08:37:46;;;;;;;8.70;3.28;;;;;;;-13.48;85.00;101000.06;5053036;28;20037;-87
2021/12/07 08:40:14;;;;;;;4.72;2.35;;;;;;;-13.44;85.12;101009.44;5052723;28;20045;-86
2021/12/07 08:42:40;;;;;;;6.95;3.38;;;;;;;-13.41;85.04;101001.28;5053412;28;20438;-88
2021/12/07 08:45:06;;;;;;;7.20;4.43;;;;;;;-13.39;85.10;100999.34;5052541;28;20091;-88
2021/12/07 08:47:33;;;;;;;3.63;3.35;;;;;;;-13.36;85.26;101004.41;5035614;28;20064;-87
2021/12/07 08:49:59;;;;;;;4.00;3.00;;;;;;;-13.37;85.33;100997.44;5039850;28;20044;-87
2021/12/07 08:52:24;;;;;;;2.78;2.53;;;;;;;-13.35;85.33;101003.47;5052830;28;20041;-86
2021/12/07 09:00:04;;;;;;;5.78;3.33;;;;;;;-13.31;85.43;100996.97;5046379;28;20526;-87
2021/12/07 09:02:30;;;;;;;8.65;3.67;;;;;;;-13.28;85.67;100996.72;5050372;28;20143;-87
2021/12/07 09:04:56;;;;;;;5.18;3.75;;;;;;;-13.24;85.50;100994.69;5018763;28;20167;-87
2021/12/07 09:07:22;;;;;;;3.53;3.10;;;;;;;-13.19;85.68;100997.78;5034921;28;20041;-86
2021/12/07 09:09:48;;;;;;;4.35;2.17;;;;;;;-13.17;85.49;101004.63;5053163;28;20036;-86
2021/12/07 09:12:15;;;;;;;5.90;4.63;;;;;;;-13.16;85.47;100995.75;5052858;28;20037;-86
2021/12/07 09:14:42;;;;;;;7.55;3.90;;;;;;;-13.13;85.49;100999.94;5051780;28;20048;-86
2021/12/07 09:17:09;;;;;;;2.78;2.38;;;;;;;-13.11;85.58;100995.38;5052811;28;20039;-86
2021/12/07 09:19:35;;;;;;;3.45;2.55;;;;;;;-13.10;85.70;100982.06;5068207;28;20133;-87
2021/12/07 09:22:01;;;;;;;12.18;4.10;;;;;;;-13.12;85.37;100991.06;5051526;28;20053;-86
2021/12/07 09:24:27;;;;;;;3.40;2.58;;;;;;;-13.11;85.41;100993.56;5033864;28;20037;-86
2021/12/07 09:26:53;;;;;;;2.75;2.55;;;;;;;-13.11;85.13;100988.28;5040412;28;20028;-86
2021/12/07 09:29:19;;;;;;;4.32;2.67;;;;;;;-13.07;85.15;100998.63;5033844;28;20068;-86
2021/12/07 09:31:48;;;;;;;3.35;2.40;;;;;;;-13.10;85.37;101005.81;5051408;28;20045;-86
2021/12/07 09:34:14;;;;;;;1.52;1.40;;;;;;;-13.11;85.19;100993.56;5034908;28;20095;-87
2021/12/07 09:36:41;;;;;;;6.57;2.78;;;;;;;-13.17;84.82;100994.06;5034575;28;20226;-86
2021/12/07 09:39:10;;;;;;;3.40;2.58;;;;;;;-13.15;84.73;101009.78;5067815;28;20399;-87
2021/12/07 09:41:35;;;;;;;4.95;3.30;;;;;;;-13.09;85.03;101001.38;5050726;28;20051;-85
2021/12/07 09:44:02;;;;;;;5.53;3.15;;;;;;;-13.05;84.92;101000.16;5024207;28;20154;-86
2021/12/07 09:46:27;;;;;;;5.22;3.15;;;;;;;-12.99;85.13;101001.50;5034545;28;20033;-86
2021/12/07 09:48:53;;;;;;;8.32;3.58;;;;;;;-12.96;85.12;100986.25;5051149;28;20041;-86
2021/12/07 09:51:21;;;;;;;3.30;1.80;;;;;;;-12.92;85.31;100976.28;5050911;28;20029;-86
2021/12/07 09:53:49;;;;;;;2.55;2.35;;;;;;;-12.92;85.18;100977.13;5067369;28;20041;-86
2021/12/07 09:56:15;;;;;;;6.95;2.50;;;;;;;-12.94;85.23;100979.03;5018225;28;20155;-86
2021/12/07 09:58:42;;;;;;;3.00;2.33;;;;;;;-12.94;85.36;100972.91;5031990;28;20479;-86
2021/12/07 10:01:08;;;;;;;13.48;3.92;;;;;;;-12.97;85.06;100973.16;5034618;28;20045;-87
2021/12/07 10:03:35;;;;;;;7.40;4.13;;;;;;;-13.00;85.00;100973.41;5050768;28;20087;-86
2021/12/07 10:06:00;;;;;;;2.47;2.08;;;;;;;-12.97;85.08;100957.31;5033411;28;20128;-86
2021/12/07 10:08:26;;;;;;;9.93;4.32;;;;;;;-12.96;85.21;100959.84;5050448;28;20127;-86
2021/12/07 10:10:55;;;;;;;4.55;3.40;;;;;;;-12.93;85.11;100956.09;5017572;28;20032;-86
2021/12/07 10:13:23;;;;;;;6.75;3.67;;;;;;;-12.95;85.10;100964.16;5017294;28;20136;-86
2021/12/07 10:15:53;;;;;;;8.55;3.38;;;;;;;-12.91;85.12;100962.09;5050802;28;20072;-86
2021/12/07 10:18:32;;;;;;;4.10;3.70;;;;;;;-12.90;84.98;100956.69;5050987;28;20041;-86
2021/12/07 10:21:04;;;;;;;5.30;3.40;;;;;;;-12.89;85.13;100960.19;5033952;28;20506;-86
2021/12/07 10:23:36;;;;;;;9.23;4.32;;;;;;;-12.89;85.35;100960.19;5050465;28;20110;-86
2021/12/07 10:26:16;;;;;;;7.55;3.65;;;;;;;-12.85;85.43;100951.03;5050505;28;20036;-86
2021/12/07 10:28:45;;;;;;;9.38;3.25;;;;;;;-12.84;85.28;100952.72;5031718;28;20063;-85
2021/12/07 10:31:10;;;;;;;10.18;4.50;;;;;;;-12.86;85.44;100949.38;5037925;28;20159;-85
2021/12/07 10:33:36;;;;;;;8.88;4.78;;;;;;;-12.88;85.22;100948.66;5049806;28;20037;-86
2021/12/07 10:36:09;;;;;;;8.10;4.25;;;;;;;-12.85;85.21;100941.31;5050849;28;20064;-86
2021/12/07 10:38:37;;;;;;;6.57;3.97;;;;;;;-12.84;85.33;100952.72;5033025;28;20041;-87
2021/12/07 10:41:10;;;;;;;4.75;3.85;;;;;;;-12.83;85.33;100951.78;5032521;28;20459;-86
2021/12/07 10:43:50;;;;;;;8.60;4.25;;;;;;;-12.84;85.36;100942.16;5048973;28;20036;-85
2021/12/07 10:46:36;;;;;;;8.23;3.97;;;;;;;-12.86;85.07;100954.66;5013824;28;20523;-86
2021/12/07 10:49:19;;;;;;;9.95;6.80;;;;;;;-12.84;85.04;100942.16;5048214;28;20041;-87
2021/12/07 10:52:05;;;;;;;6.20;3.80;;;;;;;-12.81;85.24;100936.66;5049882;28;20037;-83
2021/12/07 10:54:38;;;;;;;8.10;5.32;;;;;;;-12.81;85.13;100941.94;5049440;28;20075;-83
2021/12/07 10:57:08;;;;;;;6.35;4.55;;;;;;;-12.83;85.34;100935.94;5032990;28;20510;-83
2021/12/07 10:59:35;;;;;;;11.00;5.45;;;;;;;-12.83;85.21;100931.50;5049235;28;20491;-83
2021/12/07 11:02:12;;;;;;;10.70;4.15;;;;;;;-12.84;85.32;100942.16;5049215;28;20045;-84
2021/12/07 11:04:37;;;;;;;11.30;5.60;;;;;;;-12.83;85.33;100938.56;5032551;28;20410;-83
2021/12/07 11:07:17;;;;;;;13.93;5.82;;;;;;;-12.83;85.38;100938.56;5050727;28;20029;-83
2021/12/07 11:10:38;;;;;;;13.50;6.18;;;;;;;-12.85;85.46;100941.31;5033179;28;20561;-84
2021/12/07 11:13:06;;;;;;;11.82;6.43;;;;;;;-12.90;85.33;100935.56;5027246;28;20044;-83
2021/12/07 11:15:34;;;;;;;7.00;4.78;;;;;;;-12.91;85.31;100935.69;5049415;28;20679;-82
2021/12/07 11:18:09;;;;;;;7.88;5.00;;;;;;;-12.91;85.26;100930.41;5051058;28;20072;-82
2021/12/07 11:20:36;;;;;;;10.57;6.30;;;;;;;-12.92;85.33;100928.72;5048411;28;20098;-83
2021/12/07 11:23:13;;;;;;;11.50;6.47;;;;;;;-12.97;85.16;100938.84;5051364;28;20442;-85
2021/12/07 11:31:28;;;;;;;10.73;5.70;;;;;;;-13.05;85.19;100941.22;5048586;28;20499;-85
2021/12/07 11:34:13;;;;;;;11.00;5.80;;;;;;;-13.09;84.96;100940.63;5083650;28;20049;-88
2021/12/07 11:36:45;;;;;;;11.70;6.40;;;;;;;-13.11;85.06;100938.13;5051282;28;20032;-88
2021/12/07 11:39:23;;;;;;;15.88;6.70;;;;;;;-13.13;85.14;100937.41;5016442;28;20419;-86
2021/12/07 11:41:58;;;;;;;11.60;5.25;;;;;;;-13.14;85.10;100946.28;5051013;28;20041;-88
2021/12/07 11:44:24;;;;;;;7.82;4.15;;;;;;;-13.19;85.08;100937.06;5050106;28;20037;-88
2021/12/07 11:46:50;;;;;;;10.63;5.90;;;;;;;-13.21;85.12;100931.06;5039629;28;20047;-89
2021/12/07 11:49:20;;;;;;;12.52;6.13;;;;;;;-13.27;84.93;100940.31;5054985;28;20060;-88
2021/12/07 11:51:48;;;;;;;15.32;7.63;;;;;;;-13.32;85.06;100933.75;5053719;28;20036;-88
2021/12/07 11:54:15;;;;;;;14.27;8.13;;;;;;;-13.35;85.10;100931.34;5086708;28;20057;-79
2021/12/07 11:56:42;;;;;;;16.85;6.90;;;;;;;-13.37;85.12;100949.06;5047404;28;20041;-77
2021/12/07 11:59:08;;;;;;;10.63;5.85;;;;;;;-13.42;85.02;100945.00;5051996;28;20068;-75
2021/12/07 12:01:34;;;;;;;13.75;6.07;;;;;;;-13.46;84.94;100940.09;5052169;28;20092;-73
2021/12/07 12:04:00;;;;;;;18.23;6.80;;;;;;;-13.51;84.95;100950.19;5053706;28;20068;-73
2021/12/07 12:06:26;;;;;;;16.02;7.25;;;;;;;-13.55;85.02;100943.44;5053810;28;20049;-74
2021/12/07 12:08:52;;;;;;;12.02;6.35;;;;;;;-13.56;85.19;100950.50;5054052;28;20044;-74
2021/12/07 12:11:24;;;;;;;13.75;6.35;;;;;;;-13.59;85.12;100950.75;5052638;28;20047;-74
2021/12/07 12:14:05;;;;;;;15.23;5.75;;;;;;;-13.65;85.00;100939.84;5068692;28;20049;-73
2021/12/07 12:16:48;;;;;;;12.43;5.22;;;;;;;-13.71;84.97;100941.13;5051074;28;20048;-74
2021/12/07 12:19:31;;;;;;;10.45;4.80;;;;;;;-13.75;84.99;100940.53;5052238;28;20094;-73
2021/12/07 12:22:15;;;;;;;16.35;6.00;;;;;;;-13.83;84.96;100942.94;5050967;28;20043;-74
2021/12/07 12:24:48;;;;;;;10.35;5.85;;;;;;;-13.89;84.69;100943.38;5051248;28;20064;-76
2021/12/07 12:27:25;;;;;;;10.50;6.63;;;;;;;-13.94;85.04;100939.44;5053069;28;20112;-78
2021/12/07 12:29:53;;;;;;;6.10;4.50;;;;;;;-14.01;85.10;100949.63;5068581;28;20079;-74
2021/12/07 12:32:36;;;;;;;13.65;5.55;;;;;;;-14.04;85.14;100949.84;5050968;28;20049;-75
2021/12/07 12:35:04;;;;;;;10.18;4.97;;;;;;;-14.08;85.15;100943.94;5047595;28;20502;-75
2021/12/07 12:37:32;;;;;;;13.80;6.72;;;;;;;-14.12;85.15;100944.28;5045921;28;20047;-75
2021/12/07 12:40:03;;;;;;;7.43;5.05;;;;;;;-14.16;85.29;100940.22;5051000;28;20069;-74
2021/12/07 12:42:41;;;;;;;7.78;4.13;;;;;;;-14.21;85.12;100943.22;5050394;28;20457;-76
2021/12/07 12:45:23;;;;;;;7.47;4.35;;;;;;;-14.27;85.19;100945.44;5084044;28;20617;-75
2021/12/07 12:47:56;;;;;;;15.15;5.40;;;;;;;-14.32;85.16;100957.19;5018581;28;20036;-76
2021/12/07 12:50:27;;;;;;;9.20;4.28;;;;;;;-14.38;85.20;100949.72;5052814;28;20514;-76
2021/12/07 12:53:06;;;;;;;6.78;4.22;;;;;;;-14.43;85.24;100949.22;5051276;28;20036;-75
2021/12/07 12:55:34;;;;;;;7.65;4.78;;;;;;;-14.44;85.19;100944.94;5052984;28;20045;-76
2021/12/07 12:58:02;;;;;;;6.70;3.90;;;;;;;-14.47;85.32;100946.97;5041552;28;20068;-77
2021/12/07 13:00:56;;;;;;;12.07;4.50;;;;;;;-14.51;85.31;100945.50;5048370;28;20033;-78
2021/12/07 13:03:22;;;;;;;10.77;4.95;;;;;;;-14.57;85.29;100957.34;5043114;28;20511;-77
2021/12/07 13:05:59;;;;;;;8.98;4.70;;;;;;;-14.62;85.41;100955.03;5051280;28;20029;-77
2021/12/07 13:08:25;;;;;;;9.02;4.38;;;;;;;-14.64;85.57;100956.94;5045438;28;20068;-76
2021/12/07 13:10:59;;;;;;;11.85;4.53;;;;;;;-14.67;85.45;100956.31;5051642;28;20507;-76
2021/12/07 13:13:36;;;;;;;8.65;4.07;;;;;;;-14.73;85.37;100952.34;5070943;28;20045;-76